Time;durP1;ratioP1;P1;durP2;ratioP2;P2;SDS_P1;SDS_P2;PMS_P1;PMS_P2;Temp;Humidity;BMP_temperature;BMP_pressure;BME280_temperature;BME280_humidity;BME280_pressure;Samples;Min_cycle;Max_cycle;Signal;HPM_P1;HPM_P2
2024/02/23 00:01:11;;;;;;;8.27;4.43;;;;;;;11.43;69.26;97074.88;5035784;28;20068;-80
2024/02/23 00:03:52;;;;;;;7.53;4.50;;;;;;;11.40;69.09;97061.72;5052416;28;20135;-79
2024/02/23 00:07:23;;;;;;;6.85;4.47;;;;;;;11.36;69.78;97066.44;5052870;28;20580;-80
2024/02/23 00:10:20;;;;;;;8.93;4.80;;;;;;;11.43;68.70;97069.53;5111169;28;20084;-80
2024/02/23 00:13:07;;;;;;;8.32;4.07;;;;;;;11.41;68.67;97050.88;5083690;28;20071;-79
2024/02/23 00:19:00;;;;;;;7.07;4.30;;;;;;;11.47;69.49;97059.47;5096948;28;20147;-79
2024/02/23 00:22:10;;;;;;;7.75;4.97;;;;;;;11.45;69.64;97067.59;5095632;28;20123;-80
2024/02/23 00:25:10;;;;;;;7.60;4.72;;;;;;;11.47;69.72;97065.69;5091077;28;20043;-80
2024/02/23 00:27:58;;;;;;;8.40;4.43;;;;;;;11.40;69.24;97056.38;5097840;28;20090;-80
2024/02/23 00:30:57;;;;;;;8.20;4.95;;;;;;;11.48;69.64;97063.81;5095734;28;20495;-80
2024/02/23 00:34:27;;;;;;;7.43;4.22;;;;;;;11.54;68.34;97044.63;5085876;28;20050;-78
2024/02/23 00:37:57;;;;;;;7.03;4.85;;;;;;;11.52;68.44;97057.28;5042770;28;20033;-80
2024/02/23 00:41:23;;;;;;;8.15;4.47;;;;;;;11.54;68.47;97055.34;5036258;28;20052;-80
2024/02/23 00:44:48;;;;;;;7.53;4.85;;;;;;;11.56;68.71;97048.94;5049238;28;20047;-80
2024/02/23 00:47:38;;;;;;;11.50;4.40;;;;;;;11.51;68.71;97035.00;5048450;28;20459;-81
2024/02/23 00:50:37;;;;;;;8.88;5.00;;;;;;;11.53;68.86;97046.47;5034168;28;20410;-81
2024/02/23 00:53:43;;;;;;;10.68;5.55;;;;;;;11.59;68.08;97042.47;5034419;28;20423;-80
2024/02/23 00:56:50;;;;;;;10.02;5.32;;;;;;;11.58;68.21;97024.69;5015745;28;20488;-80
2024/02/23 00:59:57;;;;;;;9.35;5.07;;;;;;;11.56;68.77;97029.31;5046127;28;20503;-80
2024/02/23 01:03:05;;;;;;;9.90;5.18;;;;;;;11.48;70.27;97031.69;5037372;28;20116;-80
2024/02/23 01:05:43;;;;;;;9.43;5.45;;;;;;;11.50;70.49;97045.84;5016145;28;20488;-80
2024/02/23 01:08:45;;;;;;;8.93;5.47;;;;;;;11.43;70.94;97034.72;5006751;28;20051;-80
2024/02/23 01:11:40;;;;;;;7.82;4.80;;;;;;;11.49;70.93;97041.44;5054713;28;20095;-80
2024/02/23 01:14:13;;;;;;;7.50;4.82;;;;;;;11.43;71.26;97046.28;5036751;28;20550;-81
2024/02/23 01:17:39;;;;;;;13.30;4.43;;;;;;;11.52;70.59;97035.84;5044211;28;20516;-80
2024/02/23 01:20:19;;;;;;;10.95;4.60;;;;;;;11.51;70.39;97008.22;5048784;28;20035;-79
2024/02/23 01:23:52;;;;;;;8.30;4.90;;;;;;;11.46;71.60;97025.59;5048567;28;20057;-80
2024/02/23 01:26:52;;;;;;;8.57;4.93;;;;;;;11.48;71.98;97034.38;5042223;28;20051;-80
2024/02/23 01:29:40;;;;;;;7.78;4.50;;;;;;;11.43;72.04;97022.19;5025229;28;20044;-80
2024/02/23 01:33:04;;;;;;;8.43;4.43;;;;;;;11.43;72.32;97016.84;5033524;28;20504;-80
2024/02/23 01:36:11;;;;;;;9.57;4.97;;;;;;;11.38;73.35;97010.13;5034753;28;20036;-79
2024/02/23 01:39:41;;;;;;;8.80;5.43;;;;;;;11.38;74.31;97012.78;5064356;28;20048;-80
2024/02/23 01:42:53;;;;;;;7.55;5.03;;;;;;;11.35;74.51;97011.16;5036626;28;20048;-80
2024/02/23 01:46:00;;;;;;;8.47;5.03;;;;;;;11.37;74.02;97011.06;5057417;28;20139;-80
2024/02/23 01:49:12;;;;;;;7.35;4.78;;;;;;;11.30;75.63;97016.03;5031450;28;20140;-81
2024/02/23 01:52:12;;;;;;;7.47;5.07;;;;;;;11.24;76.24;97011.13;5028708;28;20045;-80
2024/02/23 01:54:53;;;;;;;9.27;5.03;;;;;;;11.18;77.68;97002.69;5054285;28;20072;-80
2024/02/23 01:58:01;;;;;;;11.32;5.18;;;;;;;11.11;79.21;97021.00;5072817;28;20092;-81
2024/02/23 02:01:09;;;;;;;9.95;5.13;;;;;;;11.08;78.96;97010.53;5067875;28;20177;-80
2024/02/23 02:04:20;;;;;;;9.15;5.70;;;;;;;11.05;79.24;96997.34;5052606;28;20025;-80
2024/02/23 02:07:19;;;;;;;;;;;;;;;11.04;81.21;97027.78;5070088;28;20430;-80
2024/02/23 02:10:46;;;;;;;9.02;4.82;;;;;;;10.93;82.17;97014.31;5101387;28;19947;-81
2024/02/23 02:14:11;;;;;;;8.45;5.07;;;;;;;10.86;82.40;97013.03;5088121;28;20024;-80
2024/02/23 02:17:18;;;;;;;9.10;4.93;;;;;;;10.87;82.34;96996.88;5102372;28;20154;-80
2024/02/23 02:20:30;;;;;;;15.73;5.50;;;;;;;10.85;80.63;97000.63;5090759;28;20605;-80
2024/02/23 02:23:22;;;;;;;8.40;4.95;;;;;;;10.86;80.98;97013.03;5079889;28;20563;-80
2024/02/23 02:26:29;;;;;;;8.30;5.13;;;;;;;10.88;78.21;96993.25;5076053;28;20384;-80
2024/02/23 02:30:00;;;;;;;8.00;5.03;;;;;;;11.06;76.63;97006.25;5098425;28;20051;-81
2024/02/23 02:32:57;;;;;;;10.20;5.07;;;;;;;11.05;75.70;97007.19;5100721;28;20085;-80
2024/02/23 02:35:47;;;;;;;8.45;5.00;;;;;;;10.98;75.71;97001.47;5113567;28;20028;-80
2024/02/23 02:38:45;;;;;;;9.38;4.95;;;;;;;11.00;75.44;97012.91;5095847;28;20039;-80
2024/02/23 02:42:17;;;;;;;9.95;5.55;;;;;;;10.94;77.12;97012.47;5100151;28;20087;-80
2024/02/23 02:45:46;;;;;;;10.13;4.90;;;;;;;10.88;76.56;97008.44;5041042;28;20463;-80
2024/02/23 02:49:15;;;;;;;7.63;5.07;;;;;;;10.95;74.31;97012.34;5051331;28;20554;-80
2024/02/23 02:52:46;;;;;;;9.77;5.13;;;;;;;10.85;75.13;97008.66;5048581;28;20029;-80
2024/02/23 02:58:50;;;;;;;9.95;5.05;;;;;;;10.94;74.57;97007.13;5036522;28;20570;-81
2024/02/23 03:01:57;;;;;;;8.27;4.65;;;;;;;10.89;74.97;96992.25;5047082;28;20063;-80
2024/02/23 03:04:55;;;;;;;7.13;4.40;;;;;;;10.83;75.71;97000.72;5037129;28;20053;-81
2024/02/23 03:08:26;;;;;;;6.70;4.30;;;;;;;10.84;75.62;97004.25;5025513;28;20107;-80
2024/02/23 03:11:58;;;;;;;11.35;6.00;;;;;;;10.84;75.33;96996.22;5046465;28;20036;-80
2024/02/23 03:14:51;;;;;;;6.75;4.72;;;;;;;10.91;73.86;96996.66;5032513;28;20129;-80
2024/02/23 03:18:17;;;;;;;7.78;5.00;;;;;;;10.84;74.68;97005.13;5043741;28;20117;-82
2024/02/23 03:21:42;;;;;;;7.70;5.03;;;;;;;10.71;76.11;97009.63;5050462;28;20033;-81
2024/02/23 03:25:09;;;;;;;8.88;4.57;;;;;;;10.68;75.02;97006.31;5010025;28;20050;-81
2024/02/23 03:28:15;;;;;;;9.27;4.70;;;;;;;10.65;75.00;97011.88;5008452;28;20049;-80
2024/02/23 03:31:06;;;;;;;9.32;4.97;;;;;;;10.62;75.10;97001.41;4997284;28;20022;-80
2024/02/23 03:34:18;;;;;;;8.00;4.80;;;;;;;10.58;75.28;96999.94;4998338;28;20026;-80
2024/02/23 03:37:32;;;;;;;9.13;5.47;;;;;;;10.54;75.39;97017.13;5019620;28;20040;-81
2024/02/23 03:40:38;;;;;;;9.70;5.32;;;;;;;10.56;75.33;97013.38;5016900;28;20174;-81
2024/02/23 03:44:04;;;;;;;8.65;4.90;;;;;;;10.47;76.25;97018.53;5009911;28;20634;-80
2024/02/23 03:46:58;;;;;;;11.55;5.65;;;;;;;10.45;76.81;97015.13;5029806;28;20183;-80
2024/02/23 03:50:25;;;;;;;8.88;5.10;;;;;;;10.45;76.26;97004.41;4966674;28;20071;-80
2024/02/23 03:53:11;;;;;;;9.65;5.13;;;;;;;10.73;71.97;97004.19;5036265;28;20107;-79
2024/02/23 03:55:58;;;;;;;10.07;4.93;;;;;;;10.70;72.46;97013.28;5033965;28;20071;-79
2024/02/23 03:58:36;;;;;;;7.57;4.93;;;;;;;10.66;72.92;97005.56;5020368;28;20128;-80
2024/02/23 04:02:07;;;;;;;7.18;4.47;;;;;;;10.66;71.39;97003.75;5037258;28;20051;-81
2024/02/23 04:04:59;;;;;;;7.63;4.57;;;;;;;10.78;70.13;97012.72;5090807;28;20111;-80
2024/02/23 04:08:05;;;;;;;10.63;5.22;;;;;;;10.90;68.39;96995.78;5063787;28;20035;-81
2024/02/23 04:11:14;;;;;;;10.27;5.57;;;;;;;10.93;68.45;97005.41;5085836;28;20035;-80
2024/02/23 04:14:36;;;;;;;8.32;5.00;;;;;;;10.85;69.37;97008.66;5092019;28;20020;-80
2024/02/23 04:17:26;;;;;;;8.85;4.75;;;;;;;10.88;68.07;96992.38;5059650;28;20035;-80
2024/02/23 04:20:21;;;;;;;10.15;4.97;;;;;;;10.89;68.37;97000.28;5077735;28;20091;-80
2024/02/23 04:23:29;;;;;;;8.73;5.32;;;;;;;10.91;67.64;96992.16;5089426;28;20067;-79
2024/02/23 04:26:16;;;;;;;10.77;5.53;;;;;;;10.96;67.88;96999.84;5092049;28;20069;-80
2024/02/23 04:29:03;;;;;;;12.10;4.95;;;;;;;10.91;67.25;96991.31;5049247;28;20044;-79
2024/02/23 04:32:21;;;;;;;10.20;5.47;;;;;;;10.98;67.21;97008.63;5055718;28;20048;-81
2024/02/23 04:35:15;;;;;;;9.07;5.53;;;;;;;11.04;66.78;97003.69;5088964;28;20522;-80
2024/02/23 04:41:50;;;;;;;10.82;4.57;;;;;;;10.97;67.09;96993.53;5074395;28;20293;-81
2024/02/23 04:45:18;;;;;;;8.50;5.18;;;;;;;10.99;67.21;96999.63;5010907;28;20436;-80
2024/02/23 04:48:49;;;;;;;7.50;4.72;;;;;;;10.98;66.97;97009.50;5029105;28;20098;-81
2024/02/23 04:52:20;;;;;;;9.00;5.05;;;;;;;11.01;66.97;97006.59;5022809;28;20183;-83
2024/02/23 04:56:00;;;;;;;6.65;4.43;;;;;;;11.05;66.56;97009.88;5028708;28;20033;-80
2024/02/23 04:59:06;;;;;;;8.48;4.95;;;;;;;11.03;66.97;97014.50;5021943;28;20618;-80
2024/02/23 05:02:14;;;;;;;10.93;6.68;;;;;;;10.98;67.51;97020.19;5004267;28;20037;-81
2024/02/23 05:05:21;;;;;;;9.43;4.68;;;;;;;11.00;67.86;97025.41;5015257;28;20046;-81
2024/02/23 05:08:50;;;;;;;8.20;4.72;;;;;;;10.94;68.56;97024.06;5009056;28;20209;-81
2024/02/23 05:11:59;;;;;;;6.65;4.25;;;;;;;11.00;70.06;97030.78;5028708;28;20025;-72
2024/02/23 05:15:15;;;;;;;8.07;4.45;;;;;;;10.95;69.42;97025.75;5040762;28;20530;-84
2024/02/23 05:18:23;;;;;;;7.43;4.25;;;;;;;10.91;69.65;97026.94;5090084;28;20038;-80
2024/02/23 05:21:48;;;;;;;11.68;4.75;;;;;;;10.89;70.08;97029.72;5027930;28;20037;-82
2024/02/23 05:25:04;;;;;;;9.07;4.80;;;;;;;10.85;70.79;97043.44;5024801;28;20049;-85
2024/02/23 05:28:29;;;;;;;10.48;6.45;;;;;;;10.79;72.02;97052.75;5040500;28;20464;-82
2024/02/23 05:32:07;;;;;;;7.15;4.45;;;;;;;10.71;72.18;97039.06;5047896;28;20185;-78
2024/02/23 05:35:04;;;;;;;6.72;3.95;;;;;;;10.84;71.74;97055.94;5052811;28;20042;-82
2024/02/23 05:41:49;;;;;;;26.65;13.13;;;;;;;10.98;70.56;97054.13;4957467;28;20098;-82
2024/02/23 05:45:08;;;;;;;11.57;6.40;;;;;;;11.73;66.62;97040.50;4968188;28;20132;-83
2024/02/23 05:47:37;;;;;;;10.73;6.68;;;;;;;12.79;60.15;97043.03;4977838;28;20430;-84
2024/02/23 05:50:34;;;;;;;12.50;7.10;;;;;;;13.36;57.33;97044.72;4972811;28;20175;-83
2024/02/23 05:53:24;;;;;;;13.43;7.75;;;;;;;13.36;56.36;97032.16;4982440;28;20027;-83
2024/02/23 05:56:19;;;;;;;9.90;5.72;;;;;;;13.83;55.04;97030.94;4951705;28;20099;-83
2024/02/23 05:59:07;;;;;;;6.28;4.20;;;;;;;14.42;52.98;97042.06;4937161;28;20041;-82
2024/02/23 06:02:40;;;;;;;5.63;3.65;;;;;;;15.03;50.80;97029.53;4996341;28;20038;-82
2024/02/23 06:06:05;;;;;;;7.50;4.43;;;;;;;15.97;48.99;97030.91;4988692;28;20026;-83
2024/02/23 06:08:56;;;;;;;7.32;4.10;;;;;;;16.47;47.26;97016.28;4978467;28;20042;-83
2024/02/23 06:12:04;;;;;;;6.85;4.20;;;;;;;16.74;46.49;97021.78;4972448;28;20031;-82
2024/02/23 06:15:19;;;;;;;8.02;5.40;;;;;;;17.19;45.65;97032.75;4966542;28;20039;-83
2024/02/23 06:21:52;;;;;;;7.13;4.10;;;;;;;16.78;45.72;97023.22;5030980;28;20116;-81
2024/02/23 06:25:03;;;;;;;8.25;3.92;;;;;;;17.09;45.07;97012.16;5058864;28;20044;-83
2024/02/23 06:31:24;;;;;;;11.27;5.38;;;;;;;18.32;43.15;97003.44;5078494;28;20048;-83
2024/02/23 06:34:54;;;;;;;7.45;4.55;;;;;;;18.76;42.28;97009.75;5063255;28;20048;-83
2024/02/23 06:38:05;;;;;;;7.28;4.13;;;;;;;18.86;41.92;97010.47;5089144;28;20028;-83
2024/02/23 06:41:16;;;;;;;8.20;4.90;;;;;;;19.12;41.55;97013.19;5065307;28;20039;-82
2024/02/23 06:44:53;;;;;;;11.73;7.13;;;;;;;19.28;40.70;97005.13;5103437;28;20039;-82
2024/02/23 06:48:26;;;;;;;6.07;4.22;;;;;;;19.21;41.04;97004.06;5033861;28;20032;-82
2024/02/23 06:51:34;;;;;;;11.55;5.93;;;;;;;19.20;41.03;97002.38;5010241;28;20045;-83
2024/02/23 06:54:47;;;;;;;5.95;4.18;;;;;;;18.81;41.20;96996.56;5032214;28;20103;-84
2024/02/23 06:58:04;;;;;;;7.50;5.10;;;;;;;18.72;41.49;97000.22;5034001;28;20045;-84
2024/02/23 07:01:37;;;;;;;8.68;5.10;;;;;;;18.99;41.43;97005.47;5051174;28;20612;-83
2024/02/23 07:04:30;;;;;;;7.45;4.63;;;;;;;19.79;40.06;97013.16;5041849;28;20440;-83
2024/02/23 07:08:01;;;;;;;6.57;4.55;;;;;;;19.91;39.87;97006.41;5037965;28;20040;-82
2024/02/23 07:11:07;;;;;;;21.88;10.93;;;;;;;20.18;39.10;97015.31;5051011;28;20041;-82
2024/02/23 07:14:43;;;;;;;6.15;4.35;;;;;;;20.38;39.03;97000.41;5055386;28;20415;-82
2024/02/23 07:24:40;;;;;;;6.30;4.32;;;;;;;19.56;39.82;97022.94;5094218;28;20517;-83
2024/02/23 07:27:58;;;;;;;7.00;4.70;;;;;;;20.18;39.45;97026.16;5094422;28;20039;-83
2024/02/23 07:31:23;;;;;;;4.43;3.58;;;;;;;20.06;38.76;97012.03;5071475;28;20056;-83
2024/02/23 07:35:10;;;;;;;10.57;3.45;;;;;;;20.95;38.11;97007.50;5110941;28;20114;-82
2024/02/23 07:38:54;;;;;;;5.55;3.95;;;;;;;20.84;38.15;97013.31;5045808;28;20044;-84
2024/02/23 07:42:03;;;;;;;5.53;4.03;;;;;;;21.12;37.91;97018.38;5050340;28;20048;-83
2024/02/23 07:45:17;;;;;;;5.85;3.92;;;;;;;21.94;36.66;96997.00;5050222;28;20049;-82
2024/02/23 07:48:42;;;;;;;4.97;3.58;;;;;;;20.87;38.38;97007.53;5048793;28;20028;-83
2024/02/23 07:51:50;;;;;;;6.22;3.45;;;;;;;21.67;37.19;97007.47;5011272;28;20037;-82
2024/02/23 07:55:26;;;;;;;5.00;3.58;;;;;;;22.65;35.82;96998.56;5010715;28;20197;-82
2024/02/23 07:58:43;;;;;;;5.97;3.75;;;;;;;22.64;35.61;96994.13;4986657;28;20047;-82
2024/02/23 08:05:07;;;;;;;3.80;2.83;;;;;;;23.46;34.56;96981.41;5010855;28;20144;-82
2024/02/23 08:08:10;;;;;;;5.20;3.80;;;;;;;23.69;34.22;96984.84;5010307;28;20033;-82
2024/02/23 08:11:43;;;;;;;5.60;3.22;;;;;;;22.57;35.33;96982.25;5011642;28;20097;-81
2024/02/23 08:14:49;;;;;;;5.40;3.70;;;;;;;22.84;35.69;96997.19;5000608;28;20042;-82
2024/02/23 08:17:45;;;;;;;4.82;3.35;;;;;;;23.21;35.25;96981.66;5010099;28;20065;-80
2024/02/23 08:20:31;;;;;;;6.13;2.95;;;;;;;24.15;34.12;96975.34;4996349;28;20065;-82
2024/02/23 08:23:44;;;;;;;5.22;3.10;;;;;;;24.46;32.69;96979.66;5010589;28;20550;-81
2024/02/23 08:26:53;;;;;;;4.65;3.22;;;;;;;22.99;34.70;96971.66;5010692;28;20553;-82
2024/02/23 08:33:39;;;;;;;5.13;3.53;;;;;;;23.65;34.16;96967.16;5035465;28;20048;-81
2024/02/23 08:36:46;;;;;;;4.47;3.20;;;;;;;23.22;33.40;96974.31;5087496;28;20040;-81
2024/02/23 08:40:12;;;;;;;11.85;7.78;;;;;;;23.98;33.03;96971.13;5078179;28;20028;-80
2024/02/23 08:50:04;;;;;;;5.22;3.13;;;;;;;20.85;37.56;97003.28;5081191;28;20051;-81
2024/02/23 08:53:28;;;;;;;4.28;2.53;;;;;;;20.85;37.87;96981.53;5089515;28;20406;-81
2024/02/23 08:57:11;;;;;;;5.75;2.90;;;;;;;22.46;36.00;96963.59;5092034;28;20032;-80
2024/02/23 09:00:49;;;;;;;4.30;3.15;;;;;;;23.21;35.17;96970.72;5049533;28;20123;-81
2024/02/23 09:04:26;;;;;;;3.53;2.70;;;;;;;23.60;34.28;96985.97;5045895;28;20116;-81
2024/02/23 09:08:00;;;;;;;4.50;2.92;;;;;;;24.58;33.14;96967.19;5049375;28;20025;-81
2024/02/23 09:11:18;;;;;;;4.45;2.80;;;;;;;25.77;31.29;96956.88;5009837;28;20044;-82
2024/02/23 09:14:57;;;;;;;4.38;3.00;;;;;;;26.01;30.59;96951.91;4997277;28;20045;-81
2024/02/23 09:18:09;;;;;;;3.67;2.65;;;;;;;26.56;30.20;96956.28;4933809;28;20110;-81
2024/02/23 09:21:36;;;;;;;5.00;3.40;;;;;;;26.16;31.04;96977.28;4986248;28;20537;-81
2024/02/23 09:24:44;;;;;;;3.88;2.58;;;;;;;26.49;30.30;96963.66;4960017;28;20042;-81
2024/02/23 09:28:14;;;;;;;3.35;2.45;;;;;;;27.20;29.35;96951.84;4956774;28;20133;-81
2024/02/23 09:31:23;;;;;;;3.88;2.40;;;;;;;26.96;29.17;96951.66;5006432;28;20049;-81
2024/02/23 09:34:51;;;;;;;3.67;2.35;;;;;;;27.53;28.73;96951.00;4990043;28;20045;-81
2024/02/23 09:38:01;;;;;;;3.22;2.03;;;;;;;27.78;28.10;96946.47;4981763;28;20042;-82
2024/02/23 09:41:31;;;;;;;4.38;2.17;;;;;;;27.59;27.87;96941.88;4970259;28;20154;-82
2024/02/23 09:44:43;;;;;;;3.30;2.60;;;;;;;27.66;28.23;96948.19;4970901;28;20049;-81
2024/02/23 09:48:10;;;;;;;3.28;2.53;;;;;;;27.98;28.01;96941.72;4962062;28;20535;-81
2024/02/23 09:51:47;;;;;;;3.47;2.55;;;;;;;27.95;28.20;96943.00;4972695;28;20035;-82
2024/02/23 09:55:20;;;;;;;3.92;2.47;;;;;;;29.13;26.97;96941.41;4969505;28;20045;-82
2024/02/23 09:58:32;;;;;;;4.40;2.65;;;;;;;28.60;27.40;96934.59;4959401;28;20109;-81
2024/02/23 10:02:15;;;;;;;3.88;2.90;;;;;;;27.78;28.60;96951.97;4959932;28;20080;-81
2024/02/23 10:05:44;;;;;;;2.88;2.05;;;;;;;27.77;28.30;96936.53;4994589;28;20045;-81
2024/02/23 10:09:12;;;;;;;5.53;2.33;;;;;;;25.87;29.61;96934.59;5008575;28;20057;-82
2024/02/23 10:12:49;;;;;;;2.83;2.03;;;;;;;26.40;29.13;96930.94;5023390;28;20127;-81
2024/02/23 10:16:04;;;;;;;3.72;2.55;;;;;;;26.68;29.31;96940.88;5028171;28;20135;-82
2024/02/23 10:23:02;;;;;;;3.15;2.22;;;;;;;26.87;29.30;96921.69;5071857;28;20089;-81
2024/02/23 10:26:28;;;;;;;3.08;2.38;;;;;;;26.61;29.19;96924.41;5043501;28;20093;-81
2024/02/23 10:29:25;;;;;;;2.92;2.28;;;;;;;26.70;29.29;96905.84;5037112;28;20519;-81
2024/02/23 10:39:39;;;;;;;3.60;2.42;;;;;;;25.82;30.67;96904.19;5051997;28;20048;-79
2024/02/23 10:43:07;;;;;;;3.67;2.42;;;;;;;26.87;30.08;96918.09;5042863;28;20033;-81
2024/02/23 10:46:34;;;;;;;2.90;1.83;;;;;;;27.10;29.37;96912.19;5036105;28;20037;-80
2024/02/23 10:50:01;;;;;;;4.90;1.80;;;;;;;27.62;28.60;96914.81;5032129;28;20033;-81
2024/02/23 10:53:33;;;;;;;2.85;2.40;;;;;;;27.51;28.90;96914.63;5026787;28;20032;-81
2024/02/23 10:56:44;;;;;;;3.75;2.95;;;;;;;26.77;29.66;96921.25;5095630;28;20422;-80
2024/02/23 11:00:12;;;;;;;7.38;1.90;;;;;;;26.05;29.55;96915.66;5094445;28;20051;-81
2024/02/23 11:03:49;;;;;;;2.22;1.90;;;;;;;24.43;31.38;96928.94;5090129;28;20089;-80
2024/02/23 11:07:15;;;;;;;3.20;2.55;;;;;;;24.43;31.79;96907.06;5025896;28;20634;-81
2024/02/23 11:10:52;;;;;;;2.42;2.17;;;;;;;26.18;29.74;96885.53;5030613;28;20499;-81
2024/02/23 11:14:16;;;;;;;4.60;1.90;;;;;;;26.03;29.76;96895.81;5032275;28;20059;-81
2024/02/23 11:17:42;;;;;;;6.30;4.13;;;;;;;26.89;29.59;96891.28;5034409;28;20045;-81
2024/02/23 11:21:10;;;;;;;3.05;2.30;;;;;;;25.20;30.27;96901.56;5051951;28;20555;-81
2024/02/23 11:27:46;;;;;;;2.92;2.22;;;;;;;26.88;28.63;96873.13;5000421;28;20048;-81
2024/02/23 11:31:17;;;;;;;3.47;2.55;;;;;;;25.41;29.93;96865.03;4953744;28;20039;-81
2024/02/23 11:34:46;;;;;;;3.35;2.40;;;;;;;23.92;31.55;96870.81;4953499;28;20137;-80
2024/02/23 11:38:16;;;;;;;2.72;2.38;;;;;;;23.57;32.37;96867.06;4987285;28;20124;-82
2024/02/23 11:41:49;;;;;;;3.75;2.35;;;;;;;24.35;31.30;96865.34;4977213;28;20026;-80
2024/02/23 11:45:16;;;;;;;3.47;2.67;;;;;;;25.59;30.06;96857.13;4954178;28;20063;-81
2024/02/23 11:48:53;;;;;;;3.25;2.55;;;;;;;25.47;29.41;96851.34;4957035;28;20585;-80
2024/02/23 11:51:27;;;;;;;2.80;1.80;;;;;;;26.06;29.21;96850.69;4902629;29;20186;-80
2024/02/23 11:54:52;;;;;;;3.17;2.38;;;;;;;24.70;30.15;96857.00;4985016;28;20026;-80
2024/02/23 11:58:19;;;;;;;3.50;3.03;;;;;;;26.40;28.42;96842.31;4933766;29;20046;-81
2024/02/23 12:01:48;;;;;;;4.40;2.30;;;;;;;26.61;28.16;96844.00;4920784;29;20035;-81
2024/02/23 12:05:29;;;;;;;7.40;2.05;;;;;;;28.15;26.57;96832.88;4917178;29;20036;-82
2024/02/23 12:08:37;;;;;;;2.95;2.10;;;;;;;28.33;26.49;96827.44;4930985;29;20147;-80
2024/02/23 12:11:58;;;;;;;4.22;2.10;;;;;;;26.71;28.06;96825.19;4922824;29;20361;-81
2024/02/23 12:15:07;;;;;;;3.78;2.20;;;;;;;26.62;28.13;96823.72;4915853;29;20559;-81
2024/02/23 12:18:34;;;;;;;2.90;2.30;;;;;;;25.10;29.49;96828.00;4854481;29;20101;-81
2024/02/23 12:25:41;;;;;;;2.45;2.17;;;;;;;25.91;29.10;96817.13;4836931;29;20182;-82
2024/02/23 12:29:16;;;;;;;3.80;2.53;;;;;;;25.90;28.95;96816.31;4872545;29;20535;-82
2024/02/23 12:32:29;;;;;;;6.25;2.90;;;;;;;23.86;30.76;96827.88;4887287;29;20146;-83
2024/02/23 12:36:11;;;;;;;3.08;2.17;;;;;;;22.69;31.82;96819.91;4928689;29;20499;-82
2024/02/23 12:39:31;;;;;;;3.80;2.65;;;;;;;22.10;32.68;96821.69;4931108;29;20508;-81
2024/02/23 12:42:56;;;;;;;2.33;1.63;;;;;;;21.99;33.37;96825.72;4919374;29;20043;-82
2024/02/23 12:46:16;;;;;;;3.08;2.13;;;;;;;23.38;31.76;96818.50;4914361;29;20040;-81
2024/02/23 12:49:22;;;;;;;3.70;2.00;;;;;;;24.90;30.65;96804.31;5020457;28;20193;-81
2024/02/23 12:52:36;;;;;;;3.53;2.40;;;;;;;26.53;29.63;96789.31;5042038;28;20041;-84
2024/02/23 12:55:25;;;;;;;3.33;1.95;;;;;;;28.19;27.42;96790.13;5029009;28;20061;-84
2024/02/23 12:58:15;;;;;;;4.47;3.17;;;;;;;28.66;26.84;96796.09;5032359;28;20037;-83
2024/02/23 13:01:43;;;;;;;4.18;2.58;;;;;;;29.76;26.50;96786.72;4996527;28;20042;-83
2024/02/23 13:05:01;;;;;;;5.93;2.58;;;;;;;28.91;26.84;96777.63;5011193;28;20433;-84
2024/02/23 13:08:34;;;;;;;10.45;3.25;;;;;;;29.60;26.23;96779.94;4903367;29;20456;-83
2024/02/23 13:12:05;;;;;;;4.55;3.00;;;;;;;30.03;25.99;96768.72;4889961;29;20055;-82
2024/02/23 13:15:15;;;;;;;4.00;2.72;;;;;;;29.48;26.51;96777.13;4908470;29;20039;-83
2024/02/23 13:18:43;;;;;;;4.68;2.70;;;;;;;27.51;27.54;96778.06;4933526;29;20095;-82
2024/02/23 13:21:57;;;;;;;6.00;2.90;;;;;;;26.02;29.56;96773.50;4932947;29;20044;-83
2024/02/23 13:28:44;;;;;;;3.83;2.65;;;;;;;25.31;30.38;96773.16;4932863;29;20087;-82
2024/02/23 13:32:02;;;;;;;5.07;2.70;;;;;;;23.58;32.12;96799.66;4934337;29;20040;-83
2024/02/23 13:35:39;;;;;;;5.78;2.80;;;;;;;23.64;32.42;96804.31;4956923;28;20125;-82
2024/02/23 13:38:30;;;;;;;6.10;2.42;;;;;;;24.73;31.42;96785.47;4969612;28;20050;-82
2024/02/23 13:41:57;;;;;;;4.18;2.65;;;;;;;26.27;29.49;96785.53;4983134;28;20125;-83
2024/02/23 13:45:33;;;;;;;4.93;3.40;;;;;;;25.81;29.99;96780.00;4965770;28;20035;-82
2024/02/23 13:48:51;;;;;;;6.55;4.03;;;;;;;25.35;30.22;96782.63;4991547;28;20042;-83
2024/02/23 13:52:06;;;;;;;3.10;2.30;;;;;;;25.78;29.12;96782.31;4982853;28;20044;-83
2024/02/23 13:59:00;;;;;;;5.10;2.70;;;;;;;27.40;27.57;96773.25;5046772;28;20051;-83
2024/02/23 14:02:34;;;;;;;19.35;9.23;;;;;;;27.99;27.44;96773.72;5064312;28;20040;-83
2024/02/23 14:05:03;;;;;;;4.75;3.45;;;;;;;28.10;27.15;96776.84;5059158;28;20500;-82
2024/02/23 14:07:58;;;;;;;3.50;2.22;;;;;;;27.04;27.48;96778.47;4989275;28;20552;-83
2024/02/23 14:11:28;;;;;;;7.80;2.72;;;;;;;26.46;28.31;96783.84;4998633;28;20034;-84
2024/02/23 14:14:41;;;;;;;2.65;2.30;;;;;;;27.47;27.72;96776.00;5012876;28;20030;-83
2024/02/23 14:18:14;;;;;;;15.27;9.38;;;;;;;27.59;26.90;96766.00;4998978;28;20049;-82
2024/02/23 14:21:40;;;;;;;6.55;3.55;;;;;;;27.76;27.44;96767.97;5006393;28;20042;-83
2024/02/23 14:24:29;;;;;;;3.88;2.83;;;;;;;28.33;26.95;96763.34;4999274;28;20038;-84
2024/02/23 14:27:57;;;;;;;2.78;2.40;;;;;;;28.28;26.91;96766.75;5011443;28;20038;-84
2024/02/23 14:31:22;;;;;;;22.05;15.65;;;;;;;28.25;26.89;96772.72;5010080;28;20123;-83
2024/02/23 14:34:50;;;;;;;4.18;3.08;;;;;;;27.31;27.31;96769.91;5039857;28;20064;-84
2024/02/23 14:41:40;;;;;;;2.65;1.60;;;;;;;25.63;28.61;96776.19;5112052;28;20038;-83
2024/02/23 14:45:09;;;;;;;2.70;2.08;;;;;;;24.33;29.96;96788.16;5119944;28;20027;-83
2024/02/23 14:48:26;;;;;;;4.20;2.53;;;;;;;23.75;31.03;96793.72;5096362;28;20055;-83
2024/02/23 14:50:57;;;;;;;2.80;1.90;;;;;;;23.23;30.68;96785.78;5099294;28;20435;-82
2024/02/23 14:54:37;;;;;;;3.93;2.80;;;;;;;22.04;32.21;96789.75;5088579;28;20124;-82
2024/02/23 15:00:58;;;;;;;2.72;1.90;;;;;;;20.94;33.88;96791.00;5092552;28;20094;-83
2024/02/23 15:04:05;;;;;;;4.15;2.75;;;;;;;20.53;35.06;96803.91;5090950;28;20470;-83
2024/02/23 15:07:18;;;;;;;6.15;3.50;;;;;;;20.23;35.27;96806.50;5054867;28;20258;-83
2024/02/23 15:10:27;;;;;;;4.47;3.25;;;;;;;20.17;35.65;96810.75;5037323;28;20040;-83
2024/02/23 15:13:57;;;;;;;8.20;4.75;;;;;;;19.95;35.90;96812.31;5047600;28;20063;-83
2024/02/23 15:17:15;;;;;;;9.55;3.50;;;;;;;19.82;36.11;96814.69;5063830;28;20055;-82
2024/02/23 15:20:44;;;;;;;24.75;13.50;;;;;;;19.57;36.48;96817.56;5078989;28;20176;-84
2024/02/23 15:24:13;;;;;;;7.65;4.78;;;;;;;19.32;37.19;96819.34;5094214;28;20131;-83
2024/02/23 15:27:43;;;;;;;7.88;4.38;;;;;;;19.21;36.98;96817.81;5090300;28;20164;-83
2024/02/23 15:31:12;;;;;;;13.50;5.57;;;;;;;19.02;37.98;96826.25;5083240;28;20055;-83
2024/02/23 15:34:29;;;;;;;10.25;5.22;;;;;;;18.81;38.43;96815.84;5084668;28;20118;-82
2024/02/23 15:38:02;;;;;;;7.50;4.30;;;;;;;18.78;38.09;96835.13;5086010;28;20032;-82
2024/02/23 15:41:11;;;;;;;7.35;4.10;;;;;;;18.58;38.74;96832.84;5091176;28;20502;-82
2024/02/23 15:44:46;;;;;;;6.22;3.50;;;;;;;18.41;39.21;96834.59;5068760;28;20193;-83
2024/02/23 15:48:20;;;;;;;7.07;3.25;;;;;;;18.17;40.18;96842.56;5095446;28;20143;-83
2024/02/23 15:51:10;;;;;;;3.65;2.20;;;;;;;18.01;40.42;96840.59;5090598;28;20152;-83
2024/02/23 16:01:09;;;;;;;17.05;12.60;;;;;;;17.65;41.87;96856.03;4993577;28;20041;-81
2024/02/23 16:05:15;;;;;;;7.10;4.35;;;;;;;17.60;41.98;96854.78;5007896;28;20034;-84
2024/02/23 16:08:44;;;;;;;6.50;3.70;;;;;;;17.50;42.47;96860.25;4946873;28;20035;-86
2024/02/23 16:11:40;;;;;;;6.43;3.90;;;;;;;17.39;42.83;96857.75;4943292;29;20039;-71
2024/02/23 16:15:14;;;;;;;7.57;3.67;;;;;;;17.33;43.08;96856.53;4947315;29;20039;-71
2024/02/23 16:18:42;;;;;;;10.07;4.85;;;;;;;17.30;43.35;96861.38;4947195;28;20053;-73
2024/02/23 16:22:19;;;;;;;15.27;9.00;;;;;;;17.09;43.82;96860.81;4926859;29;20045;-71
2024/02/23 16:25:26;;;;;;;9.65;5.75;;;;;;;17.07;45.01;96871.78;4926322;29;20040;-71
2024/02/23 16:28:57;;;;;;;9.60;5.35;;;;;;;17.02;45.07;96863.28;4948330;28;20043;-73
2024/02/23 16:32:16;;;;;;;10.98;5.55;;;;;;;16.95;45.80;96877.56;4961003;28;20039;-72
2024/02/23 16:35:50;;;;;;;5.80;3.90;;;;;;;16.85;45.78;96876.75;4998637;28;20057;-72